Time;durP1;ratioP1;P1;durP2;ratioP2;P2;SDS_P1;SDS_P2;PMS_P1;PMS_P2;Temp;Humidity;BMP_temperature;BMP_pressure;BME280_temperature;BME280_humidity;BME280_pressure;Samples;Min_cycle;Max_cycle;Signal;HPM_P1;HPM_P2
2021/12/25 00:02:21;;;;;;;;;;;;;;;25.38;54.20;96459.00;590832;240;68688;-70
2021/12/25 00:04:48;;;;;;;;;;;;;;;25.39;54.29;96459.79;590899;240;63030;-70
2021/12/25 00:07:16;;;;;;;;;;;;;;;25.38;59.87;96477.05;590847;240;66245;-70
2021/12/25 00:09:43;;;;;;;;;;;;;;;25.36;54.61;96476.56;590804;240;68581;-70
2021/12/25 00:12:11;;;;;;;;;;;;;;;25.36;54.31;96474.66;590838;240;64986;-70
2021/12/25 00:14:39;;;;;;;;;;;;;;;25.35;54.47;96478.46;590805;240;68803;-70
2021/12/25 00:17:06;;;;;;;;;;;;;;;25.34;54.35;96468.79;590885;240;66577;-70
2021/12/25 00:19:34;;;;;;;;;;;;;;;25.34;54.20;96474.17;590880;240;62999;-63
2021/12/25 00:22:01;;;;;;;;;;;;;;;25.34;54.35;96471.48;590810;240;68797;-63
2021/12/25 00:24:28;;;;;;;;;;;;;;;25.32;58.68;96473.71;590835;240;68687;-63
2021/12/25 00:27:09;;;;;;;;;;;;;;;25.31;55.50;96477.48;590845;240;65331;-63
2021/12/25 00:32:27;;;;;;;;;;;;;;;25.31;54.92;96464.03;590921;240;68305;-64
2021/12/25 00:34:39;;;;;;;;;;;;;;;25.30;54.39;96467.84;589912;240;65280;-64
2021/12/25 00:37:07;;;;;;;;;;;;;;;25.30;54.27;96467.84;590812;240;68897;-64
2021/12/25 00:39:35;;;;;;;;;;;;;;;25.28;54.65;96461.98;590777;240;69725;-62
2021/12/25 00:42:04;;;;;;;;;;;;;;;25.27;55.24;96468.47;590844;240;65075;-62
2021/12/25 00:44:34;;;;;;;;;;;;;;;25.27;55.02;96471.16;590876;240;47520;-63
2021/12/25 00:47:01;;;;;;;;;;;;;;;25.25;55.43;96466.08;590835;240;67130;-62
2021/12/25 00:49:29;;;;;;;;;;;;;;;25.24;57.50;96464.50;590829;240;66312;-62
2021/12/25 00:51:56;;;;;;;;;;;;;;;25.21;58.65;96462.44;590851;240;68622;-69
2021/12/25 00:54:25;;;;;;;;;;;;;;;25.23;55.25;96462.11;590821;240;69074;-69
2021/12/25 00:56:53;;;;;;;;;;;;;;;25.24;57.75;96474.47;590861;240;65028;-69
2021/12/25 00:59:21;;;;;;;;;;;;;;;25.23;56.90;96472.87;590876;240;68484;-70
2021/12/25 01:01:48;;;;;;;;;;;;;;;25.22;55.16;96469.39;590789;240;66139;-70
2021/12/25 01:04:16;;;;;;;;;;;;;;;25.22;55.80;96476.67;590812;240;65080;-69
2021/12/25 01:06:44;;;;;;;;;;;;;;;25.21;57.74;96480.48;590831;240;69090;-70
2021/12/25 01:09:11;;;;;;;;;;;;;;;25.20;58.21;96484.25;590832;240;68658;-69
2021/12/25 01:11:41;;;;;;;;;;;;;;;25.19;56.74;96478.09;590878;240;65191;-70
2021/12/25 01:14:20;;;;;;;;;;;;;;;25.19;58.21;96471.92;590811;240;68831;-71
2021/12/25 01:25:03;;;;;;;;;;;;;;;25.15;58.98;96465.56;590827;240;67086;-70
2021/12/25 01:30:03;;;;;;;;;;;;;;;25.14;56.34;96469.34;590863;240;51285;-70
2021/12/25 01:38:51;;;;;;;;;;;;;;;25.08;60.04;96476.75;589611;240;49436;-62
2021/12/25 01:41:29;;;;;;;;;;;;;;;25.10;56.80;96468.36;590957;240;40074;-63
2021/12/25 01:49:42;;;;;;;;;;;;;;;25.06;58.67;96465.52;590707;240;47894;-63
2021/12/25 01:52:10;;;;;;;;;;;;;;;25.08;56.82;96473.28;590880;240;65119;-63
2021/12/25 01:54:37;;;;;;;;;;;;;;;25.06;57.30;96467.41;590903;240;69541;-64
2021/12/25 01:57:05;;;;;;;;;;;;;;;25.07;55.55;96468.98;590815;240;66730;-63
2021/12/25 01:59:32;;;;;;;;;;;;;;;25.04;60.83;96470.40;590880;240;65278;-70
2021/12/25 02:02:00;;;;;;;;;;;;;;;25.02;60.37;96467.25;590819;240;69641;-70
2021/12/25 02:04:27;;;;;;;;;;;;;;;25.01;56.61;96466.43;590855;240;68648;-70
2021/12/25 02:06:55;;;;;;;;;;;;;;;25.03;56.85;96466.92;590872;240;62985;-70
2021/12/25 02:09:22;;;;;;;;;;;;;;;25.03;56.28;96463.45;590875;240;67206;-70
2021/12/25 02:11:51;;;;;;;;;;;;;;;25.02;56.45;96457.28;590861;240;68833;-70
2021/12/25 02:14:19;;;;;;;;;;;;;;;25.01;56.66;96452.20;590858;240;62677;-71
2021/12/25 02:16:58;;;;;;;;;;;;;;;25.02;56.76;96457.28;590849;240;68502;-70
2021/12/25 02:19:39;;;;;;;;;;;;;;;24.99;60.71;96452.53;590817;239;45294;-69
2021/12/25 02:22:03;;;;;;;;;;;;;;;24.99;58.34;96451.71;590726;240;41687;-70
2021/12/25 02:24:31;;;;;;;;;;;;;;;24.98;59.58;96456.30;590915;240;66791;-70
2021/12/25 02:26:59;;;;;;;;;;;;;;;24.97;60.52;96452.05;590818;240;69272;-70
2021/12/25 02:29:26;;;;;;;;;;;;;;;24.96;59.70;96457.72;590833;240;62959;-70
2021/12/25 02:31:54;;;;;;;;;;;;;;;24.96;59.61;96463.91;590868;240;69252;-70
2021/12/25 02:34:22;;;;;;;;;;;;;;;24.96;59.13;96453.16;590860;240;69374;-70
2021/12/25 02:36:50;;;;;;;;;;;;;;;24.95;60.31;96458.83;590871;240;64893;-69
2021/12/25 02:39:18;;;;;;;;;;;;;;;24.93;57.83;96459.13;590356;239;66546;-71
2021/12/25 02:41:45;;;;;;;;;;;;;;;24.93;57.21;96459.13;589884;240;68677;-71
2021/12/25 02:44:13;;;;;;;;;;;;;;;24.94;56.45;96457.25;589910;240;64960;-70
2021/12/25 02:46:43;;;;;;;;;;;;;;;24.94;60.29;96460.73;589834;240;45733;-70
2021/12/25 02:49:14;;;;;;;;;;;;;;;24.92;56.71;96451.39;589941;240;68577;-70
2021/12/25 02:51:46;;;;;;;;;;;;;;;24.91;59.29;96455.98;589900;240;65822;-71
2021/12/25 02:54:15;;;;;;;;;;;;;;;24.89;60.39;96458.17;589765;240;67853;-70
2021/12/25 02:56:43;;;;;;;;;;;;;;;24.90;60.84;96453.58;589877;240;69498;-70
2021/12/25 02:59:16;;;;;;;;;;;;;;;24.87;61.50;96454.99;589910;240;65938;-70
2021/12/25 03:01:40;;;;;;;;;;;;;;;24.85;58.67;96448.34;589672;240;67959;-70
2021/12/25 03:04:08;;;;;;;;;;;;;;;24.88;59.81;96451.22;589973;240;65881;-70
2021/12/25 03:06:37;;;;;;;;;;;;;;;24.86;61.53;96456.11;589881;240;65252;-70
2021/12/25 03:09:07;;;;;;;;;;;;;;;24.83;59.66;96459.41;589869;240;68908;-63
2021/12/25 03:11:35;;;;;;;;;;;;;;;24.83;62.05;96455.91;589866;240;66945;-62
2021/12/25 03:14:24;;;;;;;;;;;;;;;24.81;60.76;96457.02;589865;240;63559;-63
2021/12/25 03:16:41;;;;;;;;;;;;;;;24.81;60.52;96454.34;589334;240;66362;-62
2021/12/25 03:19:18;;;;;;;;;;;;;;;24.80;60.96;96452.77;589758;240;48097;-63
2021/12/25 03:21:39;;;;;;;;;;;;;;;24.79;56.70;96461.12;589544;240;65229;-63
2021/12/25 03:24:07;;;;;;;;;;;;;;;24.79;59.33;96453.06;589894;240;69534;-63
2021/12/25 03:26:34;;;;;;;;;;;;;;;24.79;59.67;96456.53;589912;240;68662;-62
2021/12/25 03:29:04;;;;;;;;;;;;;;;24.80;57.98;96466.20;589958;240;62386;-63
2021/12/25 03:31:32;;;;;;;;;;;;;;;24.79;60.35;96471.87;589899;240;66392;-63
2021/12/25 03:33:59;;;;;;;;;;;;;;;24.76;58.84;96475.17;589852;240;69952;-62
2021/12/25 03:36:27;;;;;;;;;;;;;;;24.78;61.41;96478.36;589882;240;62715;-62
2021/12/25 03:38:54;;;;;;;;;;;;;;;24.75;60.47;96468.23;589864;239;69287;-63
2021/12/25 03:41:22;;;;;;;;;;;;;;;24.75;62.61;96473.60;589901;240;68602;-63
2021/12/25 03:43:50;;;;;;;;;;;;;;;24.75;61.52;96473.60;589944;240;65021;-63
2021/12/25 03:46:18;;;;;;;;;;;;;;;24.75;59.92;96479.77;589861;240;68871;-62
2021/12/25 03:59:40;;;;;;;;;;;;;;;24.70;62.38;96481.80;589894;240;63778;-63
2021/12/25 04:02:17;;;;;;;;;;;;;;;24.68;61.12;96481.30;589902;240;68903;-63
2021/12/25 04:04:43;;;;;;;;;;;;;;;24.69;60.67;96477.50;589538;240;66336;-64
2021/12/25 04:07:43;;;;;;;;;;;;;;;24.68;60.61;96478.61;589696;240;63752;-63
2021/12/25 04:09:47;;;;;;;;;;;;;;;24.66;59.52;96476.22;588917;240;69326;-64
2021/12/25 04:12:17;;;;;;;;;;;;;;;24.67;60.15;96487.78;589846;240;69146;-64
2021/12/25 04:14:44;;;;;;;;;;;;;;;24.66;62.87;96492.34;589911;240;65117;-64
2021/12/25 04:17:12;;;;;;;;;;;;;;;24.64;62.33;96488.40;589957;240;68862;-64
2021/12/25 04:19:40;;;;;;;;;;;;;;;24.65;58.86;96495.35;589863;240;65936;-63
2021/12/25 04:22:16;;;;;;;;;;;;;;;24.64;63.27;96499.94;589886;240;65799;-63
2021/12/25 04:24:42;;;;;;;;;;;;;;;24.64;60.00;96504.52;589671;240;66593;-64
2021/12/25 04:27:11;;;;;;;;;;;;;;;24.63;61.65;96519.03;589783;240;68885;-64
2021/12/25 04:29:39;;;;;;;;;;;;;;;24.64;59.54;96512.58;589839;240;62736;-63
2021/12/25 04:32:35;;;;;;;;;;;;;;;24.61;63.91;96518.54;589821;240;73262;-63
2021/12/25 05:02:22;;;;;;;;;;;;;;;24.54;59.22;96541.27;589879;240;65578;-71
2021/12/25 05:05:00;;;;;;;;;;;;;;;24.55;61.91;96542.87;578873;240;50707;-70
2021/12/25 05:07:26;;;;;;;;;;;;;;;24.52;59.30;96540.77;587611;240;45610;-71
2021/12/25 05:09:57;;;;;;;;;;;;;;;24.51;61.52;96535.72;589850;240;65205;-70
2021/12/25 05:12:24;;;;;;;;;;;;;;;24.49;61.28;96541.37;589913;240;66000;-70
2021/12/25 05:14:52;;;;;;;;;;;;;;;24.49;61.44;96535.22;589919;240;66678;-70
2021/12/25 05:17:19;;;;;;;;;;;;;;;24.47;59.66;96538.23;589893;240;66177;-70
2021/12/25 05:19:48;;;;;;;;;;;;;;;24.48;63.36;96534.43;589894;240;66722;-70
2021/12/25 05:22:17;;;;;;;;;;;;;;;24.49;57.81;96541.37;589867;240;68497;-63
2021/12/25 05:24:45;;;;;;;;;;;;;;;24.50;62.10;96545.67;589959;240;65137;-62
2021/12/25 05:27:14;;;;;;;;;;;;;;;24.48;61.99;96550.55;589885;240;69229;-70
2021/12/25 05:29:46;;;;;;;;;;;;;;;24.47;63.27;96548.97;589847;240;69102;-70
2021/12/25 05:32:11;;;;;;;;;;;;;;;24.47;59.91;96553.52;589770;240;65912;-69
2021/12/25 05:34:44;;;;;;;;;;;;;;;24.46;62.79;96560.00;589479;240;45452;-70
2021/12/25 05:37:16;;;;;;;;;;;;;;;24.45;61.93;96564.59;589055;240;49282;-70
2021/12/25 05:39:51;;;;;;;;;;;;;;;24.44;61.01;96559.50;589156;240;43885;-70
2021/12/25 05:42:22;;;;;;;;;;;;;;;24.42;62.34;96557.11;589158;240;45038;-70
2021/12/25 05:44:52;;;;;;;;;;;;;;;24.43;64.18;96555.22;589904;240;68701;-70
2021/12/25 05:47:28;;;;;;;;;;;;;;;24.41;64.41;96552.82;589984;240;47369;-73
2021/12/25 05:49:57;;;;;;;;;;;;;;;24.39;62.74;96552.35;589502;240;44564;-69
2021/12/25 05:52:26;;;;;;;;;;;;;;;24.40;62.47;96548.55;579620;240;49510;-70
2021/12/25 05:54:55;;;;;;;;;;;;;;;24.40;62.35;96540.50;589280;240;42916;-70
2021/12/25 05:57:43;;;;;;;;;;;;;;;24.40;61.55;96553.14;589004;240;45702;-70
2021/12/25 06:00:25;;;;;;;;;;;;;;;24.39;61.23;96560.41;578895;240;50763;-62
2021/12/25 06:02:53;;;;;;;;;;;;;;;24.40;61.41;96569.25;589943;240;63831;-63
2021/12/25 06:05:25;;;;;;;;;;;;;;;24.36;63.85;96575.23;589790;240;47381;-69
2021/12/25 06:07:53;;;;;;;;;;;;;;;24.35;58.08;96573.63;589838;240;68720;-70
2021/12/25 06:10:20;;;;;;;;;;;;;;;24.38;58.75;96573.02;589913;240;65055;-70
2021/12/25 06:12:49;;;;;;;;;;;;;;;24.38;59.71;96577.60;589905;240;66646;-70
2021/12/25 06:15:23;;;;;;;;;;;;;;;24.38;61.88;96582.97;589895;240;69173;-70
2021/12/25 06:17:48;;;;;;;;;;;;;;;24.38;59.22;96580.29;589434;240;48563;-62
2021/12/25 06:20:18;;;;;;;;;;;;;;;24.38;58.50;96582.97;589649;240;47363;-63
2021/12/25 06:22:53;;;;;;;;;;;;;;;24.38;58.06;96583.77;589260;240;47205;-63
2021/12/25 06:25:38;;;;;;;;;;;;;;;24.36;59.18;96591.34;589811;240;40151;-62
2021/12/25 06:28:08;;;;;;;;;;;;;;;24.37;58.58;96579.50;589041;240;49692;-62
2021/12/25 06:30:38;;;;;;;;;;;;;;;24.37;57.37;96589.45;588341;240;48447;-63
2021/12/25 06:33:20;;;;;;;;;;;;;;;24.36;61.82;96585.16;588252;240;44997;-62
2021/12/25 06:36:05;;;;;;;;;;;;;;;24.33;60.83;96589.24;589879;240;44120;-63
2021/12/25 06:38:36;;;;;;;;;;;;;;;24.33;59.81;96583.88;585089;240;49483;-63
2021/12/25 06:41:14;;;;;;;;;;;;;;;24.33;59.82;96573.13;590222;240;43147;-62
2021/12/25 06:43:42;;;;;;;;;;;;;;;24.35;57.83;96583.58;590846;240;68783;-63
2021/12/25 06:46:11;;;;;;;;;;;;;;;24.34;57.35;96582.01;590868;240;47390;-63
2021/12/25 06:48:41;;;;;;;;;;;;;;;24.33;60.40;96580.40;590779;240;62988;-63
2021/12/25 06:51:13;;;;;;;;;;;;;;;24.33;60.70;96586.56;590920;239;49902;-63
2021/12/25 06:53:59;;;;;;;;;;;;;;;24.33;58.59;96594.61;590944;240;44565;-63
2021/12/25 06:56:31;;;;;;;;;;;;;;;24.32;59.78;96605.67;590780;240;42412;-64
2021/12/25 06:59:01;;;;;;;;;;;;;;;24.33;60.20;96613.41;590746;240;50361;-63
2021/12/25 07:01:30;;;;;;;;;;;;;;;24.30;59.64;96603.28;590778;240;47732;-63
2021/12/25 07:03:57;;;;;;;;;;;;;;;24.31;58.69;96612.16;590846;240;65030;-71
2021/12/25 07:06:43;;;;;;;;;;;;;;;24.30;60.24;96603.28;590832;240;43560;-70
2021/12/25 07:09:22;;;;;;;;;;;;;;;24.30;61.02;96610.55;590831;239;51829;-71
2021/12/25 07:11:57;;;;;;;;;;;;;;;24.29;60.57;96617.81;583259;240;46041;-71
2021/12/25 07:14:45;;;;;;;;;;;;;;;24.29;62.02;96625.08;590734;240;47066;-70
2021/12/25 07:17:21;;;;;;;;;;;;;;;24.27;60.08;96617.31;589934;240;50896;-71
2021/12/25 07:19:53;;;;;;;;;;;;;;;24.27;59.15;96619.20;590365;240;47212;-70
2021/12/25 07:22:25;;;;;;;;;;;;;;;24.28;59.55;96631.53;590511;240;46830;-70
2021/12/25 07:24:54;;;;;;;;;;;;;;;24.27;59.01;96622.69;590557;240;45941;-71
2021/12/25 07:27:39;;;;;;;;;;;;;;;24.28;61.10;96624.29;590886;240;39404;-71
2021/12/25 07:30:07;;;;;;;;;;;;;;;24.27;61.26;96617.31;590862;240;68733;-71
2021/12/25 07:32:36;;;;;;;;;;;;;;;24.26;61.93;96623.79;590898;240;68805;-71
2021/12/25 07:35:04;;;;;;;;;;;;;;;24.28;60.97;96620.78;590829;240;62756;-71
2021/12/25 07:37:33;;;;;;;;;;;;;;;24.27;58.41;96619.20;590639;240;68817;-71
2021/12/25 07:40:02;;;;;;;;;;;;;;;24.26;59.01;96620.31;590703;240;68726;-69
2021/12/25 07:42:30;;;;;;;;;;;;;;;24.23;62.81;96621.71;590738;240;63076;-69
2021/12/25 07:45:11;;;;;;;;;;;;;;;24.24;63.80;96619.81;590805;240;47383;-69
2021/12/25 07:47:45;;;;;;;;;;;;;;;24.24;62.93;96627.88;589815;240;69460;-69
2021/12/25 07:50:09;;;;;;;;;;;;;;;24.26;59.75;96628.38;589624;240;62871;-60
2021/12/25 07:52:37;;;;;;;;;;;;;;;24.27;62.42;96632.64;583483;240;68953;-60
2021/12/25 07:55:05;;;;;;;;;;;;;;;24.26;60.76;96633.74;590708;240;68748;-60
2021/12/25 07:57:32;;;;;;;;;;;;;;;24.27;61.63;96643.38;590694;240;65139;-60
2021/12/25 08:00:00;;;;;;;;;;;;;;;24.28;63.25;96642.27;590737;240;68851;-60
2021/12/25 08:02:27;;;;;;;;;;;;;;;24.27;64.76;96633.42;590819;240;68709;-60
2021/12/25 08:04:55;;;;;;;;;;;;;;;24.26;60.28;96625.69;590830;240;64917;-60
2021/12/25 08:07:22;;;;;;;;;;;;;;;24.27;64.00;96632.64;590866;240;68691;-60
2021/12/25 08:09:51;;;;;;;;;;;;;;;24.26;66.07;96636.42;590875;240;68454;-60
2021/12/25 08:12:19;;;;;;;;;;;;;;;24.27;66.59;96635.32;590888;240;62785;-60
2021/12/25 08:14:46;;;;;;;;;;;;;;;24.25;63.52;96634.81;590814;240;66435;-60
2021/12/25 08:17:14;;;;;;;;;;;;;;;24.26;62.40;96639.11;590787;240;66932;-60
2021/12/25 08:19:49;;;;;;;;;;;;;;;24.28;64.70;96636.90;588288;240;46312;-59
2021/12/25 08:22:35;;;;;;;;;;;;;;;24.27;62.48;96638.01;590934;240;42271;-60
2021/12/25 08:25:21;;;;;;;;;;;;;;;24.29;62.10;96638.51;590903;240;40405;-60
2021/12/25 08:28:07;;;;;;;;;;;;;;;24.28;64.78;96643.09;590957;240;39077;-60
2021/12/25 08:30:42;;;;;;;;;;;;;;;24.28;64.73;96653.01;583436;240;50962;-60
2021/12/25 08:33:26;;;;;;;;;;;;;;;24.28;64.24;96648.45;589799;240;49524;-60
2021/12/25 08:36:12;;;;;;;;;;;;;;;24.29;64.24;96649.25;590970;240;40995;-60
2021/12/25 08:38:40;;;;;;;;;;;;;;;24.28;65.11;96648.45;590828;240;68542;-60
2021/12/25 08:41:07;;;;;;;;;;;;;;;24.27;63.81;96644.16;590824;240;68535;-60
2021/12/25 08:43:45;;;;;;;;;;;;;;;24.28;64.14;96642.27;590814;240;65042;-60
2021/12/25 08:46:13;;;;;;;;;;;;;;;24.30;65.70;96645.45;590449;240;69061;-60
2021/12/25 08:48:33;;;;;;;;;;;;;;;24.28;65.69;96643.09;590473;240;66569;-60
2021/12/25 08:51:00;;;;;;;;;;;;;;;24.29;67.81;96639.30;590869;240;63004;-60
2021/12/25 08:53:28;;;;;;;;;;;;;;;24.28;66.98;96632.34;590872;240;68837;-60
2021/12/25 08:55:57;;;;;;;;;;;;;;;24.31;65.10;96622.89;590859;240;68679;-60
2021/12/25 08:58:32;;;;;;;;;;;;;;;24.30;67.85;96619.39;590869;240;64864;-60
2021/12/25 09:01:02;;;;;;;;;;;;;;;24.30;64.52;96607.86;590910;240;66627;-60
2021/12/25 09:03:30;;;;;;;;;;;;;;;24.31;68.52;96604.89;590850;240;68590;-60
2021/12/25 09:05:59;;;;;;;;;;;;;;;24.29;67.45;96611.66;590870;240;62911;-60
2021/12/25 09:08:26;;;;;;;;;;;;;;;24.28;67.69;96602.81;590824;240;68871;-60
2021/12/25 09:10:54;;;;;;;;;;;;;;;24.29;65.78;96604.39;590878;240;68549;-60
2021/12/25 09:13:22;;;;;;;;;;;;;;;24.30;65.01;96597.12;590879;240;62758;-60
2021/12/25 09:15:50;;;;;;;;;;;;;;;24.33;67.73;96593.83;590863;240;68897;-60
2021/12/25 09:18:18;;;;;;;;;;;;;;;24.31;67.44;96590.67;590865;240;68663;-60
2021/12/25 09:20:45;;;;;;;;;;;;;;;24.30;65.85;96581.80;590858;240;65086;-60
2021/12/25 09:23:13;;;;;;;;;;;;;;;24.31;65.43;96586.09;590893;240;68819;-69
2021/12/25 09:25:42;;;;;;;;;;;;;;;24.32;62.97;96578.82;590925;240;49517;-69
2021/12/25 09:28:10;;;;;;;;;;;;;;;24.34;67.72;96573.95;590912;240;64958;-69
2021/12/25 09:30:37;;;;;;;;;;;;;;;24.30;68.48;96568.37;590885;240;66572;-70
2021/12/25 09:33:05;;;;;;;;;;;;;;;24.30;65.86;96581.80;590849;240;67032;-69
2021/12/25 09:35:32;;;;;;;;;;;;;;;24.30;65.79;96568.37;590849;240;65171;-69
2021/12/25 09:38:00;;;;;;;;;;;;;;;24.29;65.69;96564.11;590852;240;68859;-70
2021/12/25 09:40:27;;;;;;;;;;;;;;;24.30;67.54;96560.31;589935;239;68744;-69
2021/12/25 09:42:55;;;;;;;;;;;;;;;24.29;66.21;96566.00;589893;240;65025;-69
2021/12/25 09:45:23;;;;;;;;;;;;;;;24.28;67.97;96557.16;589927;240;68860;-70
2021/12/25 09:47:51;;;;;;;;;;;;;;;24.30;66.63;96549.57;589929;240;66362;-70
2021/12/25 09:50:18;;;;;;;;;;;;;;;24.31;65.69;96545.02;589988;240;62926;-70
2021/12/25 09:52:46;;;;;;;;;;;;;;;24.31;66.90;96545.81;589963;240;66095;-70
2021/12/25 09:55:14;;;;;;;;;;;;;;;24.30;67.06;96543.41;589913;240;66451;-69
2021/12/25 09:57:42;;;;;;;;;;;;;;;24.30;66.25;96535.36;589877;240;65240;-69
2021/12/25 10:00:14;;;;;;;;;;;;;;;24.28;66.39;96535.68;589931;240;68689;-69
2021/12/25 10:02:43;;;;;;;;;;;;;;;24.27;68.41;96527.91;589680;240;68486;-69
2021/12/25 10:05:11;;;;;;;;;;;;;;;24.28;68.93;96534.86;589753;240;63037;-69
2021/12/25 10:07:40;;;;;;;;;;;;;;;24.28;68.66;96526.80;589946;240;68545;-69
2021/12/25 10:10:13;;;;;;;;;;;;;;;24.28;67.00;96518.75;589901;240;66345;-68
2021/12/25 10:12:44;;;;;;;;;;;;;;;24.27;66.21;96526.02;589896;240;63041;-70
2021/12/25 10:15:16;;;;;;;;;;;;;;;24.27;67.92;96525.23;589925;240;69580;-70
2021/12/25 10:17:48;;;;;;;;;;;;;;;24.28;68.24;96521.44;589892;240;66500;-69
2021/12/25 10:20:17;;;;;;;;;;;;;;;24.27;68.52;96517.96;589951;240;65176;-69
2021/12/25 10:22:56;;;;;;;;;;;;;;;24.26;68.46;96511.02;589902;240;66533;-69
2021/12/25 10:25:24;;;;;;;;;;;;;;;24.26;68.23;96508.33;589898;240;66568;-69
2021/12/25 10:27:53;;;;;;;;;;;;;;;24.27;68.15;96501.06;589914;240;65036;-69
2021/12/25 10:30:20;;;;;;;;;;;;;;;24.26;66.23;96494.12;589870;240;68752;-69
2021/12/25 10:32:50;;;;;;;;;;;;;;;24.26;67.13;96496.80;589777;240;46045;-69
2021/12/25 10:35:21;;;;;;;;;;;;;;;24.27;66.47;96493.80;589940;240;62704;-69
2021/12/25 10:37:54;;;;;;;;;;;;;;;24.27;66.66;96499.16;589851;240;66572;-69
2021/12/25 10:40:24;;;;;;;;;;;;;;;24.26;66.58;96489.53;589696;240;68557;-69
2021/12/25 10:42:50;;;;;;;;;;;;;;;24.27;68.75;96488.42;589822;240;65053;-69
2021/12/25 10:45:17;;;;;;;;;;;;;;;24.25;68.46;96493.30;589912;240;68716;-70
2021/12/25 10:47:45;;;;;;;;;;;;;;;24.27;67.47;96488.42;589924;240;69107;-69
2021/12/25 10:50:14;;;;;;;;;;;;;;;24.24;67.17;96490.94;589886;240;62725;-69
2021/12/25 10:52:47;;;;;;;;;;;;;;;24.26;67.61;96491.43;589921;240;69018;-69
2021/12/25 10:55:16;;;;;;;;;;;;;;;24.26;68.20;96484.16;589883;240;68697;-68
2021/12/25 10:57:49;;;;;;;;;;;;;;;24.24;67.76;96477.51;589885;240;65081;-68
2021/12/25 11:00:18;;;;;;;;;;;;;;;24.25;68.19;96482.56;589907;240;66615;-68
2021/12/25 11:02:47;;;;;;;;;;;;;;;24.24;67.01;96485.56;588968;240;68562;-69
2021/12/25 11:05:22;;;;;;;;;;;;;;;24.25;66.68;96482.56;589924;240;63139;-69
2021/12/25 11:07:51;;;;;;;;;;;;;;;24.26;66.79;96478.00;589879;240;68582;-68
2021/12/25 11:10:20;;;;;;;;;;;;;;;24.25;66.08;96481.77;588904;240;68803;-68
2021/12/25 11:12:47;;;;;;;;;;;;;;;24.21;68.45;96481.59;589910;240;63071;-68
2021/12/25 11:15:16;;;;;;;;;;;;;;;24.23;67.11;96481.30;589892;240;69085;-68
2021/12/25 11:17:54;;;;;;;;;;;;;;;24.22;65.26;96483.17;589752;240;68562;-68
2021/12/25 11:20:29;;;;;;;;;;;;;;;24.21;68.07;96473.54;589895;240;63823;-68
2021/12/25 11:23:00;;;;;;;;;;;;;;;24.21;67.28;96467.38;589698;240;68919;-68
2021/12/25 11:25:29;;;;;;;;;;;;;;;24.21;66.81;96464.70;589894;240;68710;-68
2021/12/25 11:27:58;;;;;;;;;;;;;;;24.23;66.91;96462.51;589925;240;62948;-68
2021/12/25 11:30:27;;;;;;;;;;;;;;;24.23;67.50;96459.83;589910;240;66695;-68
2021/12/25 11:32:55;;;;;;;;;;;;;;;24.19;67.16;96464.98;589835;240;66666;-68
2021/12/25 11:35:23;;;;;;;;;;;;;;;24.18;66.74;96454.57;589881;240;63057;-68
2021/12/25 11:37:51;;;;;;;;;;;;;;;24.19;66.55;96458.83;589851;240;68676;-68
2021/12/25 11:40:20;;;;;;;;;;;;;;;24.19;68.42;96458.83;589917;240;68642;-59
2021/12/25 11:42:52;;;;;;;;;;;;;;;24.18;67.41;96454.57;589875;240;64999;-59
2021/12/25 11:45:20;;;;;;;;;;;;;;;24.18;67.32;96459.94;589888;240;66794;-59
2021/12/25 11:47:51;;;;;;;;;;;;;;;24.19;68.05;96461.52;589866;240;66560;-59
2021/12/25 11:50:21;;;;;;;;;;;;;;;24.15;68.60;96464.81;589899;240;65194;-59
2021/12/25 11:53:08;;;;;;;;;;;;;;;24.16;68.15;96460.23;589030;240;68847;-59
2021/12/25 11:58:37;;;;;;;;;;;;;;;24.18;67.81;96454.57;588088;240;65114;-59
2021/12/25 12:00:51;;;;;;;;;;;;;;;24.17;68.23;96453.75;589200;240;68860;-59
2021/12/25 12:03:42;;;;;;;;;;;;;;;24.15;68.09;96454.08;589866;240;68892;-59
2021/12/25 12:06:07;;;;;;;;;;;;;;;24.14;67.70;96446.31;589625;240;65256;-68
2021/12/25 12:08:53;;;;;;;;;;;;;;;24.15;68.08;96445.23;589894;240;68809;-69
2021/12/25 12:11:34;;;;;;;;;;;;;;;24.12;67.69;96441.27;578923;240;50962;-69
2021/12/25 12:14:18;;;;;;;;;;;;;;;24.13;68.40;96439.38;589935;240;48192;-68
2021/12/25 12:16:52;;;;;;;;;;;;;;;24.12;68.32;96430.53;579581;240;49544;-68
2021/12/25 12:19:40;;;;;;;;;;;;;;;24.11;67.47;96434.29;589545;240;46951;-68
2021/12/25 12:22:22;;;;;;;;;;;;;;;24.12;67.72;96432.42;589625;240;65096;-69
2021/12/25 12:24:49;;;;;;;;;;;;;;;24.09;67.64;96441.06;589452;240;68714;-69
2021/12/25 12:27:11;;;;;;;;;;;;;;;24.09;68.26;96441.87;589588;240;68809;-69
2021/12/25 12:29:43;;;;;;;;;;;;;;;24.08;68.30;96450.22;589858;240;65098;-69
2021/12/25 12:32:12;;;;;;;;;;;;;;;24.09;68.92;96457.98;589892;240;69115;-69
2021/12/25 12:34:40;;;;;;;;;;;;;;;24.09;68.52;96457.98;587699;240;68675;-70
2021/12/25 12:37:24;;;;;;;;;;;;;;;24.09;67.86;96457.98;589846;240;62825;-70
2021/12/25 12:39:57;;;;;;;;;;;;;;;24.10;67.85;96461.45;589544;239;68964;-68
2021/12/25 12:42:47;;;;;;;;;;;;;;;24.08;69.24;96461.75;589890;240;66479;-68
2021/12/25 12:45:22;;;;;;;;;;;;;;;24.07;69.60;96459.38;589859;240;69408;-69
2021/12/25 12:47:57;;;;;;;;;;;;;;;24.07;68.67;96456.70;589886;240;68827;-69
2021/12/25 12:50:32;;;;;;;;;;;;;;;24.06;69.75;96453.23;588591;240;68720;-69
2021/12/25 12:53:00;;;;;;;;;;;;;;;24.05;66.82;96459.67;589919;240;65301;-69
2021/12/25 12:55:29;;;;;;;;;;;;;;;24.06;68.65;96457.78;589870;240;66813;-69
2021/12/25 12:58:07;;;;;;;;;;;;;;;24.05;68.47;96458.89;589877;240;68667;-69
2021/12/25 13:00:35;;;;;;;;;;;;;;;24.04;68.48;96455.41;589752;240;65052;-69
2021/12/25 13:03:03;;;;;;;;;;;;;;;24.03;68.10;96458.39;589911;240;68801;-69
2021/12/25 13:05:33;;;;;;;;;;;;;;;24.03;67.81;96461.86;589911;240;68828;-69
2021/12/25 13:08:02;;;;;;;;;;;;;;;24.04;69.86;96460.00;589902;240;65178;-69
2021/12/25 13:13:08;;;;;;;;;;;;;;;24.03;69.38;96459.17;589875;240;68323;-69
2021/12/25 13:15:36;;;;;;;;;;;;;;;24.02;68.28;96467.55;589647;240;65032;-68
2021/12/25 13:18:05;;;;;;;;;;;;;;;24.00;67.69;96462.47;589880;240;66397;-68
2021/12/25 13:20:39;;;;;;;;;;;;;;;24.01;69.74;96460.58;589899;240;68878;-69
2021/12/25 13:23:08;;;;;;;;;;;;;;;24.00;69.08;96465.16;589879;240;65080;-69
2021/12/25 13:25:36;;;;;;;;;;;;;;;24.00;68.37;96459.00;589836;240;68651;-68
2021/12/25 13:28:05;;;;;;;;;;;;;;;24.00;68.91;96469.73;589893;240;69386;-68
2021/12/25 13:30:32;;;;;;;;;;;;;;;24.00;67.92;96469.73;589876;240;65224;-69
2021/12/25 13:33:12;;;;;;;;;;;;;;;23.99;68.77;96466.27;589969;240;66634;-68
2021/12/25 13:35:41;;;;;;;;;;;;;;;23.98;69.58;96472.73;589927;240;68834;-69
2021/12/25 13:38:09;;;;;;;;;;;;;;;23.98;67.68;96472.73;589881;238;65070;-68
2021/12/25 13:40:37;;;;;;;;;;;;;;;23.96;67.58;96469.56;589908;240;68330;-68
2021/12/25 13:43:06;;;;;;;;;;;;;;;23.98;68.98;96471.92;589912;240;68698;-68
2021/12/25 13:45:34;;;;;;;;;;;;;;;23.95;68.98;96475.22;589864;240;62916;-68
2021/12/25 13:48:02;;;;;;;;;;;;;;;23.96;68.82;96480.30;589970;240;66843;-68
2021/12/25 13:50:30;;;;;;;;;;;;;;;23.95;69.26;96481.38;589868;240;68806;-68
2021/12/25 13:53:04;;;;;;;;;;;;;;;23.94;69.02;96482.48;589888;240;65039;-68
2021/12/25 13:55:31;;;;;;;;;;;;;;;23.93;69.48;96476.33;589826;240;68777;-59
2021/12/25 13:58:00;;;;;;;;;;;;;;;23.94;68.85;96477.11;589913;240;68525;-60
2021/12/25 14:00:29;;;;;;;;;;;;;;;23.93;68.50;96484.38;589730;240;65198;-60
2021/12/25 14:03:01;;;;;;;;;;;;;;;23.92;69.20;96474.72;589956;240;68352;-60
2021/12/25 14:05:30;;;;;;;;;;;;;;;23.91;68.72;96488.45;589918;240;66948;-60
2021/12/25 14:07:58;;;;;;;;;;;;;;;23.91;69.04;96483.88;589906;240;65118;-60
2021/12/25 14:10:29;;;;;;;;;;;;;;;23.91;67.38;96483.09;589712;240;48009;-60
2021/12/25 14:13:00;;;;;;;;;;;;;;;23.89;68.40;96483.38;589934;240;68478;-60
2021/12/25 14:15:29;;;;;;;;;;;;;;;23.91;70.07;96489.24;589908;240;64946;-60